createdAt,value
2023-02-08T00:04:12.421Z,-1.43
2023-02-08T00:09:12.099Z,-1.45
2023-02-08T00:14:12.044Z,-1.46
2023-02-08T00:19:11.976Z,-1.49
2023-02-08T00:24:11.921Z,-1.53
2023-02-08T00:29:11.841Z,-1.57
2023-02-08T00:34:11.792Z,-1.62
2023-02-08T00:39:11.706Z,-1.66
2023-02-08T00:44:11.664Z,-1.69
2023-02-08T00:49:11.570Z,-1.71
2023-02-08T00:54:11.528Z,-1.73
2023-02-08T00:59:11.450Z,-1.75
2023-02-08T01:04:11.409Z,-1.77
2023-02-08T01:09:29.483Z,-1.81
2023-02-08T01:14:21.863Z,-1.90
2023-02-08T01:19:21.873Z,-1.97
2023-02-08T01:24:21.770Z,-2.00
2023-02-08T01:29:21.748Z,-2.01
2023-02-08T01:34:21.666Z,-2.00
2023-02-08T01:39:21.598Z,-2.00
2023-02-08T01:44:21.526Z,-2.01
2023-02-08T01:49:21.478Z,-2.03
2023-02-08T01:54:21.392Z,-2.06
2023-02-08T01:59:21.375Z,-2.09
2023-02-08T02:04:21.299Z,-2.12
2023-02-08T02:09:21.210Z,-2.15
2023-02-08T02:14:21.196Z,-2.18
2023-02-08T02:19:21.096Z,-2.21
2023-02-08T02:24:21.033Z,-2.23
2023-02-08T02:29:20.979Z,-2.26
2023-02-08T02:34:20.884Z,-2.28
2023-02-08T02:39:20.839Z,-2.30
2023-02-08T02:44:20.738Z,-2.32
2023-02-08T02:49:20.730Z,-2.34
2023-02-08T02:54:20.626Z,-2.35
2023-02-08T02:59:20.590Z,-2.37
2023-02-08T03:04:20.554Z,-2.39
2023-02-08T03:09:20.476Z,-2.42
2023-02-08T03:14:20.406Z,-2.45
2023-02-08T03:19:20.355Z,-2.47
2023-02-08T03:24:20.268Z,-2.51
2023-02-08T03:29:20.232Z,-2.54
2023-02-08T03:34:20.140Z,-2.57
2023-02-08T03:39:20.097Z,-2.60
2023-02-08T03:44:20.036Z,-2.63
2023-02-08T03:49:19.966Z,-2.65
2023-02-08T03:54:19.878Z,-2.67
2023-02-08T03:59:19.874Z,-2.70
2023-02-08T04:04:19.759Z,-2.73
2023-02-08T04:09:19.722Z,-2.76
2023-02-08T04:14:19.630Z,-2.79
2023-02-08T04:19:19.577Z,-2.81
2023-02-08T04:24:19.489Z,-2.83
2023-02-08T04:29:19.521Z,-2.85
2023-02-08T04:34:19.399Z,-2.86
2023-02-08T04:39:19.356Z,-2.87
2023-02-08T04:44:19.250Z,-2.88
2023-02-08T04:49:19.241Z,-2.90
2023-02-08T04:54:19.109Z,-2.92
2023-02-08T04:59:19.125Z,-2.94
2023-02-08T05:04:19.001Z,-2.96
2023-02-08T05:09:18.961Z,-2.98
2023-02-08T05:14:18.935Z,-3.01
2023-02-08T05:19:34.884Z,-3.05
2023-02-08T05:24:27.281Z,-3.14
2023-02-08T05:29:27.171Z,-3.21
2023-02-08T05:34:27.184Z,-3.25
2023-02-08T05:39:27.049Z,-3.26
2023-02-08T05:44:26.994Z,-3.26
2023-02-08T05:49:26.930Z,-3.27
2023-02-08T05:54:26.877Z,-3.28
2023-02-08T05:59:26.808Z,-3.29
2023-02-08T06:04:26.787Z,-3.30
2023-02-08T06:09:26.685Z,-3.31
2023-02-08T06:14:26.641Z,-3.32
2023-02-08T06:19:26.554Z,-3.34
2023-02-08T06:24:26.504Z,-3.36
2023-02-08T06:29:26.444Z,-3.39
2023-02-08T06:34:26.376Z,-3.41
2023-02-08T06:39:26.321Z,-3.43
2023-02-08T06:44:26.221Z,-3.46
2023-02-08T06:49:26.170Z,-3.47
2023-02-08T06:54:27.113Z,-3.47
2023-02-08T06:59:26.031Z,-3.47
2023-02-08T07:04:26.046Z,-3.47
2023-02-08T07:09:25.947Z,-3.45
2023-02-08T07:14:26.094Z,-3.43
2023-02-08T07:19:25.793Z,-3.40
2023-02-08T07:24:25.738Z,-3.35
2023-02-08T07:29:25.718Z,-3.29
2023-02-08T07:34:25.735Z,-3.22
2023-02-08T07:39:25.563Z,-3.13
2023-02-08T07:44:25.851Z,-2.99
2023-02-08T07:49:25.438Z,-2.78
2023-02-08T07:54:25.375Z,-2.52
2023-02-08T07:59:25.344Z,-2.02
2023-02-08T08:04:25.241Z,-1.18
2023-02-08T08:09:25.141Z,-0.12
2023-02-08T08:14:25.126Z,1.02
2023-02-08T08:19:25.012Z,1.97
2023-02-08T08:24:24.989Z,2.42
2023-02-08T08:29:24.923Z,2.37
2023-02-08T08:34:24.908Z,2.04
2023-02-08T08:39:24.809Z,2.10
2023-02-08T08:44:24.756Z,2.79
2023-02-08T08:49:24.652Z,3.79
2023-02-08T08:54:24.608Z,5.02
2023-02-08T08:59:24.568Z,6.58
2023-02-08T09:04:24.472Z,8.28
2023-02-08T09:09:24.381Z,9.82
2023-02-08T09:14:24.337Z,11.14
2023-02-08T09:19:24.296Z,12.32
2023-02-08T09:24:24.189Z,13.46
2023-02-08T09:29:24.126Z,14.62
2023-02-08T09:34:24.073Z,15.83
2023-02-08T09:39:24.003Z,16.95
2023-02-08T09:44:23.930Z,18.00
2023-02-08T09:49:23.840Z,19.10
2023-02-08T09:54:23.821Z,20.27
2023-02-08T09:59:23.727Z,21.42
2023-02-08T10:04:23.677Z,22.42
2023-02-08T10:09:23.571Z,23.22
2023-02-08T10:14:23.539Z,23.85
2023-02-08T10:19:23.485Z,24.44
2023-02-08T10:24:23.395Z,25.07
2023-02-08T10:29:23.340Z,25.63
2023-02-08T10:34:23.300Z,26.10
2023-02-08T10:39:23.195Z,26.46
2023-02-08T10:44:23.150Z,26.68
2023-02-08T10:49:23.095Z,26.78
2023-02-08T10:54:23.026Z,26.84
2023-02-08T10:59:22.939Z,26.91
2023-02-08T11:04:22.938Z,26.99
2023-02-08T11:09:22.790Z,27.09
2023-02-08T11:14:22.748Z,27.20
2023-02-08T11:19:22.651Z,27.25
2023-02-08T11:24:22.589Z,27.18
2023-02-08T11:29:22.529Z,27.06
2023-02-08T11:34:22.469Z,27.00
2023-02-08T11:39:22.424Z,26.81
2023-02-08T11:44:22.359Z,25.77
2023-02-08T11:49:22.280Z,23.78
2023-02-08T11:54:22.225Z,21.55
2023-02-08T11:59:22.113Z,19.95
2023-02-08T12:04:22.093Z,19.37
2023-02-08T12:09:21.985Z,19.37
2023-02-08T12:14:21.961Z,19.63
2023-02-08T12:19:21.911Z,20.18
2023-02-08T12:24:21.812Z,20.82
2023-02-08T12:29:21.741Z,21.50
2023-02-08T12:34:21.682Z,22.03
2023-02-08T12:39:23.995Z,22.23
2023-02-08T12:44:21.535Z,22.42
2023-02-08T12:49:21.437Z,22.89
2023-02-08T12:54:21.395Z,22.99
2023-02-08T12:59:21.358Z,22.31
2023-02-08T13:04:21.295Z,20.50
2023-02-08T13:09:21.193Z,18.01
2023-02-08T13:14:21.140Z,15.68
2023-02-08T13:19:21.070Z,13.77
2023-02-08T13:24:21.008Z,12.33
2023-02-08T13:29:20.934Z,11.27
2023-02-08T13:34:20.884Z,10.50
2023-02-08T13:39:20.809Z,9.94
2023-02-08T13:44:20.764Z,9.55
2023-02-08T13:49:20.690Z,9.29
2023-02-08T13:54:20.624Z,9.10
2023-02-08T13:59:20.556Z,8.97
2023-02-08T14:04:20.529Z,8.85
2023-02-08T14:09:20.402Z,8.74
2023-02-08T14:14:20.381Z,8.66
2023-02-08T14:19:20.323Z,8.61
2023-02-08T14:24:20.220Z,8.59
2023-02-08T14:29:21.579Z,8.57
2023-02-08T14:34:20.109Z,8.53
2023-02-08T14:39:20.005Z,8.45
2023-02-08T14:44:19.969Z,8.33
2023-02-08T14:49:19.875Z,8.20
2023-02-08T14:54:19.860Z,8.07
2023-02-08T14:59:19.764Z,7.95
2023-02-08T15:04:19.733Z,7.84
2023-02-08T15:09:19.592Z,7.73
2023-02-08T15:14:19.582Z,7.61
2023-02-08T15:19:19.522Z,7.48
2023-02-08T15:24:19.462Z,7.37
2023-02-08T15:29:19.373Z,7.28
2023-02-08T15:34:19.627Z,7.17
2023-02-08T15:39:19.244Z,7.01
2023-02-08T15:44:19.162Z,6.83
2023-02-08T15:49:19.112Z,6.62
2023-02-08T15:54:19.030Z,6.42
2023-02-08T15:59:18.977Z,6.22
2023-02-08T16:04:18.937Z,6.03
2023-02-08T16:09:18.863Z,5.84
2023-02-08T16:14:18.762Z,5.64
2023-02-08T16:19:18.792Z,5.43
2023-02-08T16:24:18.654Z,5.23
2023-02-08T16:29:20.220Z,5.02
2023-02-08T16:34:18.540Z,4.80
2023-02-08T16:39:18.466Z,4.59
2023-02-08T16:44:19.291Z,4.38
2023-02-08T16:49:18.292Z,4.16
2023-02-08T16:54:18.249Z,3.97
2023-02-08T16:59:18.228Z,3.78
2023-02-08T17:04:18.137Z,3.61
2023-02-08T17:09:18.127Z,3.46
2023-02-08T17:14:18.019Z,3.33
2023-02-08T17:19:18.013Z,3.21
2023-02-08T17:24:18.020Z,3.10
2023-02-08T17:29:17.842Z,3.02
2023-02-08T17:34:17.756Z,2.95
2023-02-08T17:39:17.714Z,2.88
2023-02-08T17:44:17.627Z,2.81
2023-02-08T17:49:17.571Z,2.74
2023-02-08T17:54:17.457Z,2.68
2023-02-08T17:59:17.424Z,2.61
2023-02-08T18:04:17.371Z,2.54
2023-02-08T18:09:17.307Z,2.47
2023-02-08T18:14:17.233Z,2.40
2023-02-08T18:19:17.172Z,2.34
2023-02-08T18:24:17.073Z,2.29
2023-02-08T18:29:17.039Z,2.24
2023-02-08T18:34:16.955Z,2.18
2023-02-08T18:39:16.916Z,2.11
2023-02-08T18:44:16.842Z,2.03
2023-02-08T18:49:16.791Z,1.95
2023-02-08T18:54:16.676Z,1.82
2023-02-08T18:59:16.662Z,1.67
2023-02-08T19:04:16.569Z,1.49
2023-02-08T19:09:16.505Z,1.31
2023-02-08T19:14:16.458Z,1.13
2023-02-08T19:19:16.372Z,0.95
2023-02-08T19:24:16.364Z,0.78
2023-02-08T19:29:16.500Z,0.61
2023-02-08T19:34:16.162Z,0.45
2023-02-08T19:39:16.149Z,0.31
2023-02-08T19:44:16.091Z,0.19
2023-02-08T19:49:17.300Z,0.07
2023-02-08T19:54:15.928Z,-0.04
2023-02-08T19:59:15.875Z,-0.12
2023-02-08T20:04:15.807Z,-0.17
2023-02-08T20:09:15.773Z,-0.19
2023-02-08T20:14:15.790Z,-0.21
2023-02-08T20:19:15.617Z,-0.21
2023-02-08T20:24:15.572Z,-0.22
2023-02-08T20:29:15.489Z,-0.21
2023-02-08T20:34:15.414Z,-0.21
2023-02-08T20:39:15.432Z,-0.22
2023-02-08T20:44:15.294Z,-0.24
2023-02-08T20:49:15.366Z,-0.28
2023-02-08T20:54:15.221Z,-0.33
2023-02-08T20:59:15.131Z,-0.39
2023-02-08T21:04:15.024Z,-0.45
2023-02-08T21:09:15.033Z,-0.53
2023-02-08T21:14:14.901Z,-0.62
2023-02-08T21:19:14.849Z,-0.71
2023-02-08T21:24:14.785Z,-0.80
2023-02-08T21:29:14.705Z,-0.88
2023-02-08T21:34:14.684Z,-0.95
2023-02-08T21:39:14.614Z,-1.01
2023-02-08T21:44:14.542Z,-1.07
2023-02-08T21:49:14.517Z,-1.11
2023-02-08T21:54:14.434Z,-1.12
2023-02-08T21:59:14.380Z,-1.13
2023-02-08T22:04:14.317Z,-1.12
2023-02-08T22:09:14.265Z,-1.12
2023-02-08T22:14:14.201Z,-1.13
2023-02-08T22:19:14.145Z,-1.17
2023-02-08T22:24:14.043Z,-1.22
2023-02-08T22:29:14.042Z,-1.29
2023-02-08T22:34:13.969Z,-1.36
2023-02-08T22:39:13.894Z,-1.42
2023-02-08T22:44:13.812Z,-1.47
2023-02-08T22:49:13.783Z,-1.50
2023-02-08T22:54:13.688Z,-1.52
2023-02-08T22:59:13.633Z,-1.53
2023-02-08T23:04:13.570Z,-1.53
2023-02-08T23:09:13.507Z,-1.54
2023-02-08T23:14:13.429Z,-1.55
2023-02-08T23:19:13.386Z,-1.55
2023-02-08T23:24:13.308Z,-1.55
2023-02-08T23:29:13.247Z,-1.56
2023-02-08T23:34:13.179Z,-1.58
2023-02-08T23:39:13.098Z,-1.61
2023-02-08T23:44:13.054Z,-1.66
2023-02-08T23:49:13.010Z,-1.70
2023-02-08T23:54:12.911Z,-1.74
2023-02-08T23:59:12.911Z,-1.79
